Al Ahsa, Saudi Arabia
Current Conditions -  °F | °C
As of 6:00 PM on Thursday 23 Oct 2014 (Local Time) from OEAH Reporting Station
Clear Clear  
Wind Chill: 84°   Ceiling: Unl
Heat Index: 84°   Visibility: 6mi
Dew Point: 46°   Wind: 5mph
Humidity: 27%   Direction: 340°NNW
Pressure: 29.97"   Gusts: NA
Location:  25.3°N, 49.48°E
Report Text: OEAH 231500Z 34004KT CAVOK 29/08 Q1015 NOSIG
Loading
Personal Weather Stations






























Interactive Weather Map
Tropical Storm Tracking
New forecast layout! Learn more

10-Day Weather Forecast

Advertisements
Track Severe Weather on mobile